Terminal Aerodrome Forecast
Issued by NWS Wakefield, VA

Home | Current Version | Previous Version | Text Only | Print | Product List | Glossary On
Versions: 1 2 3 4 5 6 7 8 9 10 11 12 13 14 15 16 17 18 19 20
000
FTUS41 KAKQ 251258 AAA
TAFORF
TAF AMD
KORF 251258Z 2513/2612 19005KT P6SM SCT006 BKN015
     FM251700 21007KT P6SM BKN030
     FM252000 25008KT 6SM -SHRA BKN040
     FM260100 28007KT P6SM BKN050
     FM260500 31006KT P6SM BKN100=

USA.gov is the U.S. government's official web portal to all federal, state and local government web resources and services.